AirNav   Duncan Aviation - Near you to keep you flying
 
 1067 users online  

MD74 Good Neighbor Farm Airport
Unionville, Maryland, USA

GOING TO UNIONVILLE?


FAA INFORMATION EFFECTIVE 08 SEPTEMBER 2022

Location

FAA Identifier: MD74
Lat/Long: 39-28-27.3660N 077-11-42.9350W
39-28.456100N 077-11.715583W
39.4742683,-77.1952597
(estimated)
Elevation: 580 ft. / 177 m (estimated)
Variation: 10W (1985)
From city: 1 mile W of UNIONVILLE, MD
Time zone: UTC -4 (UTC -5 during Standard Time)
Zip code: 21771

Airport Operations

Airport use: Private use. Permission required prior to landing
Activation date: 10/1973
Control tower: no
ARTCC: WASHINGTON CENTER
FSS: LEESBURG FLIGHT SERVICE STATION
Attendance: UNATNDD
Wind indicator: yes
Segmented circle: no

Airport Communications

WX AWOS-3 at FDK (9 nm W): PHONE 301-600-1457
WX AWOS-3 at DMW (12 nm NE): 121.25 (410-876-1281)
WX AWOS-3PT at GAI (18 nm S): 128.275 (301-977-2971)

Nearby radio navigation aids

VOR radial/distance  VOR name  Freq  Var
FDKr074/(9.1)FREDERICK VOR109.0008W
EMIr271/10.1WESTMINSTER VORTAC117.9008W
MRBr087/30.7MARTINSBURG VORTAC112.1007W
BALr317/30.7BALTIMORE VORTAC115.1011W
HGRr121/(33.4)HAGERSTOWN VOR109.8007W
AMLr029/34.8ARMEL VOR/DME113.5008W
DCAr358/37.6WASHINGTON VOR/DME111.0009W

 
NDB name  Hdg/Dist  Freq  Var  ID
ELLICOTT311/22.437111WFND ..-. -. -..
GEORGETOWN003/32.832309WGTN --. - -.

Airport Services

Airframe service: NONE
Powerplant service: NONE

Runway Information

Runway 2/20

Dimensions: 2100 x 75 ft. / 640 x 23 m
Surface: turf
RUNWAY 2  RUNWAY 20
Traffic pattern: leftleft

Airport Ownership and Management from official FAA records

Ownership: Privately-owned
Owner: MR. JAMES FREY
PO BOX 659, 13992 PENN SHOP ROAD
MT AIRY, MD 21771
Phone 301-831-5400
Manager: MR. JAMES FREY
PO BOX 659, 13992 PENN SHOP ROAD
MT AIRY, MD 21771
Phone 301-639-7122

Airport Operational Statistics

Aircraft based on the field: 1
Single engine airplanes: 1
    

Additional Remarks

FOR CD CTC POTOMAC APCH AT 866-709-4993.

Instrument Procedures

There are no published instrument procedures at MD74.

Some nearby airports with instrument procedures:

2W2 - Clearview Airpark (8 nm E)
KFDK - Frederick Municipal Airport (9 nm W)
KDMW - Carroll County Regional Airport/Jack B Poage Field (12 nm NE)
W50 - Davis Airport (14 nm S)
KGAI - Montgomery County Airpark (18 nm S)
 
Loc | Ops | Rwys | IFR | FBO | Links
Com | Nav | Svcs | Stats | Notes
Area around MD74 (Good Neighbor Farm Airport)
 
Road maps at: MapQuest Bing Google
 
Aerial photo
No photo
 
Sectional chart

 
Airport distance calculator
Flying to Good Neighbor Farm Airport? Find the distance to fly.

From to MD74

Sunrise and sunset
Times for 04-Oct-2022
 Local
(UTC-4)
 Zulu
(UTC)
Morning civil twilight06:4210:42
Sunrise07:0911:09
Sunset18:4622:46
Evening civil twilight19:1323:13

Current date and time
Zulu (UTC)  05-Oct-2022 03:44:18
Local (UTC-4)  04-Oct-2022 23:44:18
 
METAR
KFDK 
9nm SW 
050340Z AUTO 00000KT 10SM OVC025 10/10 A2998 RMK AO2 LTG DSNT E
KDMW 
12nm NE 
050325Z AUTO 35009G15KT 10SM -RA OVC010 09/09 A2996 RMK AO2 P0001
KGAI 
18nm S 
050256Z AUTO 32004KT OVC019 09/08 A2998 RMK AO2 SLP166 60003 T00890078 58004 PWINO $
TAF
KBWI 
30nm SE 
050000Z 0500/0606 33009G15KT 5SM -RA BR VCTS BKN014CB OVC035 TEMPO 0500/0503 2SM TSRA BR BKN008CB FM050300 35009G15KT 5SM -RADZ BR OVC008 FM051600 34010G19KT P6SM OVC015 FM052000 35010G18KT P6SM BKN025 FM060000 34005KT P6SM BKN080
KIAD 
35nm S 
042056Z 0421/0524 34013G19KT P6SM OVC020 FM042300 34014G22KT 6SM -RA BR OVC015 FM050200 34010G17KT 4SM RA BR OVC010 FM050400 34009KT 6SM -RADZ BR OVC010 FM051600 33010G17KT P6SM OVC025 FM051900 34010G18KT P6SM BKN045
KMRB 
37nm W 
042058Z 0421/0518 34012G18KT P6SM VCSH BKN016 OVC023 FM050000 34008KT 6SM -RA BR OVC025 FM050700 33006KT P6SM OVC025 FM051500 33009KT P6SM BKN035
KMTN 
37nm E 
041952Z 0420/0518 33010G20KT 3SM RA BR VCTS OVC015CB TEMPO 0420/0422 1SM +TSRA FM042200 36008G16KT 3SM RA BR OVC008 FM050600 35008KT 5SM -RADZ BR OVC008 FM051600 35011G21KT P6SM OVC010
NOTAMs
Click for the latest NOTAMs
NOTAMs are issued by the DoD/FAA and will open in a separate window not controlled by AirNav.

 

 
 

Would you like to see your business listed on this page?

 If your business provides an interesting product or service to pilots, flight crews, aircraft, or users of the Good Neighbor Farm Airport, you should consider listing it here.  To start the listing process, click on the button below
 
Add a business
 

Other Pages about Good Neighbor Farm Airport

Update a link
 
Copyright © AirNav, LLC. All rights reserved. Privacy Policy  Contact